createdAt,value
2022-12-03T00:00:40.235Z,96535.34
2022-12-03T00:03:06.991Z,96531.59
2022-12-03T00:05:33.694Z,96529.25
2022-12-03T00:08:00.344Z,96532.44
2022-12-03T00:10:27.380Z,96536.53
2022-12-03T00:12:54.025Z,96536.81
2022-12-03T00:15:20.696Z,96526.50
2022-12-03T00:17:47.357Z,96522.59
2022-12-03T00:20:19.025Z,96528.03
2022-12-03T00:22:45.697Z,96520.94
2022-12-03T00:25:12.373Z,96520.25
2022-12-03T00:27:39.053Z,96519.31
2022-12-03T00:30:06.292Z,96522.78
2022-12-03T00:32:32.939Z,96519.72
2022-12-03T00:34:59.641Z,96526.13
2022-12-03T00:37:26.305Z,96524.59
2022-12-03T00:39:52.963Z,96517.06
2022-12-03T00:42:19.970Z,96520.56
2022-12-03T00:44:46.608Z,96520.25
2022-12-03T00:47:13.315Z,96515.97
2022-12-03T00:49:40.368Z,96521.28
2022-12-03T00:52:07.035Z,96518.63
2022-12-03T00:54:33.669Z,96523.78
2022-12-03T00:57:00.522Z,96520.47
2022-12-03T00:59:27.242Z,96525.34
2022-12-03T01:01:54.202Z,96526.00
2022-12-03T01:04:21.039Z,96526.97
2022-12-03T01:06:48.105Z,96522.25
2022-12-03T01:09:14.760Z,96519.59
2022-12-03T01:11:42.251Z,96518.91
2022-12-03T01:14:14.319Z,96523.22
2022-12-03T01:16:40.994Z,96527.44
2022-12-03T01:19:08.063Z,96524.06
2022-12-03T01:21:34.769Z,96524.06
2022-12-03T01:24:01.807Z,96539.25
2022-12-03T01:26:28.438Z,96532.44
2022-12-03T01:28:55.083Z,96534.13
2022-12-03T01:31:21.774Z,96538.88
2022-12-03T01:33:48.474Z,96535.41
2022-12-03T01:36:15.155Z,96545.84
2022-12-03T01:38:41.855Z,96542.53
2022-12-03T01:41:11.701Z,96537.31
2022-12-03T01:43:38.721Z,96541.69
2022-12-03T01:46:05.637Z,96540.88
2022-12-03T01:48:33.589Z,96545.72
2022-12-03T01:51:00.638Z,96535.84
2022-12-03T01:53:27.313Z,96534.75
2022-12-03T01:55:53.978Z,96540.47
2022-12-03T01:58:21.230Z,96542.97
2022-12-03T02:00:47.869Z,96550.06
2022-12-03T02:03:19.296Z,96543.81
2022-12-03T02:05:45.954Z,96537.97
2022-12-03T02:08:31.940Z,96538.81
2022-12-03T02:10:59.579Z,96537.13
2022-12-03T02:13:26.254Z,96538.13
2022-12-03T02:15:52.905Z,96539.78
2022-12-03T02:18:19.565Z,96544.81
2022-12-03T02:21:09.719Z,96541.19
2022-12-03T02:23:45.324Z,96552.75
2022-12-03T02:26:11.949Z,96541.19
2022-12-03T02:28:38.581Z,96548.00
2022-12-03T02:31:05.293Z,96547.72
2022-12-03T02:33:32.231Z,96544.38
2022-12-03T02:36:03.263Z,96539.38
2022-12-03T02:38:30.580Z,96529.06
2022-12-03T02:40:59.382Z,96535.31
2022-12-03T02:43:25.995Z,96527.81
2022-12-03T02:45:54.614Z,96531.16
2022-12-03T02:48:25.930Z,96532.97
2022-12-03T02:50:57.509Z,96533.38
2022-12-03T02:53:28.397Z,96526.84
2022-12-03T02:55:55.687Z,96530.03
2022-12-03T02:58:22.738Z,96530.63
2022-12-03T03:00:50.045Z,96533.38
2022-12-03T03:03:16.788Z,96528.94
2022-12-03T03:05:43.435Z,96541.31
2022-12-03T03:08:10.130Z,96543.69
2022-12-03T03:10:37.569Z,96542.41
2022-12-03T03:13:06.667Z,96540.91
2022-12-03T03:15:33.281Z,96539.09
2022-12-03T03:17:59.948Z,96533.38
2022-12-03T03:20:26.593Z,96544.38
2022-12-03T03:22:53.226Z,96548.13
2022-12-03T03:25:20.026Z,96549.94
2022-12-03T03:27:46.659Z,96542.28
2022-12-03T03:30:13.417Z,96547.31
2022-12-03T03:32:40.072Z,96557.31
2022-12-03T03:35:07.043Z,96552.84
2022-12-03T03:37:33.680Z,96541.31
2022-12-03T03:40:00.316Z,96550.47
2022-12-03T03:42:26.949Z,96540.06
2022-12-03T03:44:53.918Z,96544.78
2022-12-03T03:47:20.689Z,96553.53
2022-12-03T03:49:47.354Z,96548.22
2022-12-03T03:52:13.970Z,96548.75
2022-12-03T03:54:40.600Z,96549.75
2022-12-03T03:57:07.265Z,96539.63
2022-12-03T03:59:33.910Z,96547.53
2022-12-03T04:02:00.547Z,96548.34
2022-12-03T04:04:27.328Z,96536.53
2022-12-03T04:06:53.995Z,96540.84
2022-12-03T04:09:20.652Z,96541.13
2022-12-03T04:11:47.273Z,96535.56
2022-12-03T04:14:13.910Z,96537.47
2022-12-03T04:16:40.613Z,96546.25
2022-12-03T04:19:07.327Z,96540.25
2022-12-03T04:21:33.951Z,96537.47
2022-12-03T04:24:00.782Z,96542.91
2022-12-03T04:26:27.441Z,96539.28
2022-12-03T04:28:54.062Z,96539.44
2022-12-03T04:31:20.796Z,96539.72
2022-12-03T04:33:47.475Z,96539.72
2022-12-03T04:36:14.358Z,96536.50
2022-12-03T04:38:41.020Z,96547.22
2022-12-03T04:41:07.652Z,96549.19
2022-12-03T04:43:35.027Z,96541.97
2022-12-03T04:46:01.995Z,96546.41
2022-12-03T04:48:28.959Z,96543.34
2022-12-03T04:50:55.593Z,96537.94
2022-12-03T04:53:22.256Z,96547.53
2022-12-03T04:55:48.879Z,96541.84
2022-12-03T04:58:15.483Z,96538.63
2022-12-03T05:00:42.189Z,96542.13
2022-12-03T05:03:08.805Z,96545.72
2022-12-03T05:05:35.451Z,96538.19
2022-12-03T05:08:02.164Z,96544.75
2022-12-03T05:10:28.907Z,96540.03
2022-12-03T05:12:55.533Z,96543.09
2022-12-03T05:15:22.174Z,96534.88
2022-12-03T05:17:48.849Z,96532.53
2022-12-03T05:20:15.462Z,96522.66
2022-12-03T05:22:42.094Z,96520.56
2022-12-03T05:25:08.985Z,96525.72
2022-12-03T05:27:35.595Z,96517.78
2022-12-03T05:30:02.365Z,96517.25
2022-12-03T05:32:29.063Z,96510.97
2022-12-03T05:34:56.033Z,96509.16
2022-12-03T05:37:22.869Z,96515.28
2022-12-03T05:39:49.517Z,96507.78
2022-12-03T05:42:16.171Z,96514.06
2022-12-03T05:44:42.780Z,96505.16
2022-12-03T05:47:09.394Z,96500.97
2022-12-03T05:49:36.042Z,96493.31
2022-12-03T05:52:02.669Z,96489.97
2022-12-03T05:54:29.277Z,96500.56
2022-12-03T05:56:55.901Z,96496.66
2022-12-03T05:59:22.632Z,96494.28
2022-12-03T06:01:49.265Z,96492.09
2022-12-03T06:04:15.917Z,96491.50
2022-12-03T06:06:42.544Z,96492.63
2022-12-03T06:09:09.177Z,96490.66
2022-12-03T06:11:35.818Z,96500.97
2022-12-03T06:14:02.484Z,96502.34
2022-12-03T06:16:29.286Z,96497.91
2022-12-03T06:18:55.969Z,96496.78
2022-12-03T06:21:22.602Z,96510.00
2022-12-03T06:23:49.271Z,96516.53
2022-12-03T06:26:15.954Z,96514.16
2022-12-03T06:28:42.563Z,96509.84
2022-12-03T06:31:09.352Z,96502.22
2022-12-03T06:33:36.073Z,96511.13
2022-12-03T06:36:02.685Z,96509.19
2022-12-03T06:38:29.301Z,96497.47
2022-12-03T06:40:55.918Z,96498.31
2022-12-03T06:43:22.957Z,96495.56
2022-12-03T06:45:49.576Z,96500.97
2022-12-03T06:48:16.445Z,96503.75
2022-12-03T06:50:43.102Z,96508.19
2022-12-03T06:53:09.741Z,96513.47
2022-12-03T06:55:36.426Z,96511.41
2022-12-03T06:58:03.120Z,96529.19
2022-12-03T07:00:29.807Z,96521.56
2022-12-03T07:02:56.686Z,96521.56
2022-12-03T07:05:23.380Z,96527.13
2022-12-03T07:07:50.099Z,96528.38
2022-12-03T07:10:16.740Z,96526.72
2022-12-03T07:12:43.365Z,96531.31
2022-12-03T07:15:10.115Z,96527.00
2022-12-03T07:17:36.768Z,96530.63
2022-12-03T07:20:03.566Z,96521.28
2022-12-03T07:22:30.357Z,96526.84
2022-12-03T07:24:56.978Z,96527.81
2022-12-03T07:27:23.592Z,96520.28
2022-12-03T07:29:50.737Z,96514.19
2022-12-03T07:32:17.371Z,96513.50
2022-12-03T07:34:43.993Z,96522.09
2022-12-03T07:37:10.627Z,96514.47
2022-12-03T07:39:37.286Z,96526.84
2022-12-03T07:42:04.009Z,96523.22
2022-12-03T07:44:30.675Z,96522.09
2022-12-03T07:46:57.715Z,96516.00
2022-12-03T07:49:24.393Z,96520.44
2022-12-03T07:51:51.027Z,96505.41
2022-12-03T07:54:17.675Z,96504.72
2022-12-03T07:56:44.292Z,96511.38
2022-12-03T07:59:10.918Z,96506.38
2022-12-03T08:01:37.650Z,96505.81
2022-12-03T08:04:04.356Z,96497.16
2022-12-03T08:06:30.977Z,96491.88
2022-12-03T08:08:57.646Z,96496.47
2022-12-03T08:11:24.292Z,96498.41
2022-12-03T08:13:50.930Z,96494.53
2022-12-03T08:16:19.109Z,96483.56
2022-12-03T08:18:46.093Z,96488.69
2022-12-03T08:21:18.097Z,96490.50
2022-12-03T08:23:44.802Z,96497.19
2022-12-03T08:26:24.938Z,96489.09
2022-12-03T08:28:55.063Z,96487.56
2022-12-03T08:31:25.592Z,96485.94
2022-12-03T08:33:58.170Z,96476.84
2022-12-03T08:36:26.275Z,96486.03
2022-12-03T08:38:55.392Z,96476.75
2022-12-03T08:41:22.689Z,96485.50
2022-12-03T08:43:49.323Z,96480.72
2022-12-03T08:46:17.653Z,96478.63
2022-12-03T08:48:48.660Z,96481.69
2022-12-03T08:51:21.157Z,96473.91
2022-12-03T08:53:55.354Z,96484.31
2022-12-03T08:56:28.497Z,96482.88
2022-12-03T08:59:17.261Z,96474.22
2022-12-03T09:01:44.608Z,96469.78
2022-12-03T09:04:44.985Z,96478.34
2022-12-03T09:07:11.622Z,96470.91
2022-12-03T09:09:38.289Z,96469.69
2022-12-03T09:12:04.985Z,96471.78
2022-12-03T09:14:31.606Z,96471.50
2022-12-03T09:16:58.310Z,96465.03
2022-12-03T09:19:25.895Z,96471.16
2022-12-03T09:21:53.338Z,96464.41
2022-12-03T09:24:20.236Z,96463.00
2022-12-03T09:26:46.856Z,96473.03
2022-12-03T09:29:13.520Z,96474.28
2022-12-03T09:31:40.460Z,96470.38
2022-12-03T09:34:07.175Z,96463.22
2022-12-03T09:36:33.789Z,96468.28
2022-12-03T09:39:00.628Z,96480.69
2022-12-03T09:41:27.270Z,96477.50
2022-12-03T09:44:13.977Z,96473.28
2022-12-03T09:46:40.680Z,96472.81
2022-12-03T09:49:12.268Z,96484.16
2022-12-03T09:51:42.069Z,96480.44
2022-12-03T09:54:10.118Z,96480.00
2022-12-03T09:56:37.533Z,96483.63
2022-12-03T09:59:11.632Z,96480.75
2022-12-03T10:01:38.331Z,96484.09
2022-12-03T10:04:05.425Z,96479.06
2022-12-03T10:06:32.084Z,96480.53
2022-12-03T10:08:58.746Z,96473.56
2022-12-03T10:11:25.675Z,96471.94
2022-12-03T10:13:55.425Z,96478.72
2022-12-03T10:16:22.144Z,96475.50
2022-12-03T10:18:55.794Z,96471.78
2022-12-03T10:21:26.054Z,96472.44
2022-12-03T10:24:21.655Z,96462.00
2022-12-03T10:26:49.386Z,96457.66
2022-12-03T10:29:29.615Z,96457.50
2022-12-03T10:32:04.989Z,96443.59
2022-12-03T10:34:33.275Z,96437.84
2022-12-03T10:37:19.553Z,96437.84
2022-12-03T10:39:59.513Z,96445.09
2022-12-03T10:42:27.962Z,96435.75
2022-12-03T10:45:15.935Z,96432.88
2022-12-03T10:47:43.014Z,96432.03
2022-12-03T10:50:18.571Z,96438.13
2022-12-03T10:52:45.489Z,96439.78
2022-12-03T10:55:12.883Z,96433.94
2022-12-03T10:57:45.018Z,96433.66
2022-12-03T11:00:16.363Z,96440.94
2022-12-03T11:02:44.045Z,96442.59
2022-12-03T11:05:18.519Z,96429.56
2022-12-03T11:07:45.232Z,96432.97
2022-12-03T11:10:15.676Z,96427.56
2022-12-03T11:12:42.323Z,96429.63
2022-12-03T11:15:14.982Z,96421.84
2022-12-03T11:17:46.436Z,96429.88
2022-12-03T11:20:25.312Z,96432.50
2022-12-03T11:22:52.768Z,96431.97
2022-12-03T11:25:25.220Z,96437.75
2022-12-03T11:28:10.458Z,96444.78
2022-12-03T11:30:49.217Z,96445.38
2022-12-03T11:33:25.992Z,96441.59
2022-12-03T11:36:04.443Z,96441.81
2022-12-03T11:38:36.985Z,96433.44
2022-12-03T11:41:08.042Z,96430.63
2022-12-03T11:43:52.737Z,96430.31
2022-12-03T11:46:24.339Z,96427.97
2022-12-03T11:48:52.469Z,96437.44
2022-12-03T11:51:21.059Z,96429.94
2022-12-03T11:53:47.718Z,96421.69
2022-12-03T11:56:22.567Z,96431.94
2022-12-03T11:58:49.205Z,96429.88
2022-12-03T12:01:15.868Z,96424.41
2022-12-03T12:03:47.259Z,96431.28
2022-12-03T12:06:18.367Z,96423.41
2022-12-03T12:08:47.924Z,96423.16
2022-12-03T12:11:28.162Z,96422.00
2022-12-03T12:14:04.751Z,96422.06
2022-12-03T12:16:50.383Z,96412.97
2022-12-03T12:19:33.367Z,96413.28
2022-12-03T12:22:28.642Z,96408.56
2022-12-03T12:25:06.181Z,96406.91
2022-12-03T12:27:39.295Z,96409.84
2022-12-03T12:30:07.195Z,96408.50
2022-12-03T12:32:38.713Z,96416.28
2022-12-03T12:35:22.300Z,96410.31
2022-12-03T12:37:58.653Z,96398.72
2022-12-03T12:40:29.194Z,96397.28
2022-12-03T12:43:02.201Z,96399.94
2022-12-03T12:45:35.384Z,96393.88
2022-12-03T12:48:17.907Z,96393.69
2022-12-03T12:50:46.253Z,96402.19
2022-12-03T12:53:24.550Z,96388.44
2022-12-03T12:56:01.618Z,96389.94
2022-12-03T12:58:32.249Z,96386.78
2022-12-03T13:01:01.093Z,96390.28
2022-12-03T13:03:29.192Z,96383.09
2022-12-03T13:05:56.593Z,96390.59
2022-12-03T13:08:41.035Z,96385.75
2022-12-03T13:11:29.458Z,96390.53
2022-12-03T13:13:56.111Z,96387.28
2022-12-03T13:16:27.965Z,96388.72
2022-12-03T13:18:55.641Z,96384.41
2022-12-03T13:21:27.175Z,96374.50
2022-12-03T13:23:57.071Z,96380.44
2022-12-03T13:26:37.732Z,96384.75
2022-12-03T13:29:14.539Z,96379.16
2022-12-03T13:31:44.196Z,96377.94
2022-12-03T13:34:20.014Z,96374.47
2022-12-03T13:36:50.551Z,96370.16
2022-12-03T13:39:30.789Z,96377.63
2022-12-03T13:42:09.389Z,96370.66
2022-12-03T13:44:36.570Z,96384.63
2022-12-03T13:47:19.696Z,96377.63
2022-12-03T13:49:53.768Z,96374.47
2022-12-03T13:52:21.923Z,96368.16
2022-12-03T13:54:53.991Z,96363.84
2022-12-03T13:57:20.623Z,96364.00
2022-12-03T13:59:47.250Z,96356.25
2022-12-03T14:02:14.003Z,96359.22
2022-12-03T14:04:40.707Z,96354.63
2022-12-03T14:07:07.318Z,96356.59
2022-12-03T14:09:36.011Z,96368.25
2022-12-03T14:12:02.635Z,96358.63
2022-12-03T14:14:29.269Z,96365.44
2022-12-03T14:16:59.808Z,96352.94
2022-12-03T14:19:26.937Z,96352.66
2022-12-03T14:21:53.582Z,96355.59
2022-12-03T14:24:20.225Z,96359.56
2022-12-03T14:26:46.894Z,96347.75
2022-12-03T14:29:13.515Z,96340.00
2022-12-03T14:31:40.232Z,96355.28
2022-12-03T14:34:06.890Z,96354.22
2022-12-03T14:36:33.581Z,96345.28
2022-12-03T14:39:00.260Z,96347.72
2022-12-03T14:41:26.887Z,96347.25
2022-12-03T14:43:53.534Z,96345.09
2022-12-03T14:46:20.195Z,96334.69
2022-12-03T14:48:46.907Z,96335.81
2022-12-03T14:51:13.531Z,96343.94
2022-12-03T14:53:40.177Z,96339.56
2022-12-03T14:56:06.807Z,96335.94
2022-12-03T14:58:51.260Z,96335.16
2022-12-03T15:01:17.974Z,96341.50
2022-12-03T15:03:44.655Z,96335.44
2022-12-03T15:06:11.307Z,96333.44
2022-12-03T15:08:37.956Z,96342.03
2022-12-03T15:11:04.592Z,96329.75
2022-12-03T15:13:31.216Z,96336.38
2022-12-03T15:15:57.849Z,96339.69
2022-12-03T15:18:24.481Z,96332.31
2022-12-03T15:20:51.139Z,96337.72
2022-12-03T15:23:17.752Z,96337.31
2022-12-03T15:25:44.392Z,96341.63
2022-12-03T15:28:11.138Z,96334.66
2022-12-03T15:30:37.826Z,96335.00
2022-12-03T15:33:04.503Z,96334.59
2022-12-03T15:35:31.136Z,96334.09
2022-12-03T15:37:57.780Z,96339.69
2022-12-03T15:40:24.929Z,96326.97
2022-12-03T15:42:51.618Z,96327.13
2022-12-03T15:45:18.278Z,96335.38
2022-12-03T15:47:44.973Z,96337.28
2022-12-03T15:50:11.913Z,96334.19
2022-12-03T15:52:38.562Z,96326.59
2022-12-03T15:55:05.300Z,96336.47
2022-12-03T15:57:31.938Z,96332.31
2022-12-03T15:59:58.605Z,96325.69
2022-12-03T16:02:25.267Z,96330.31
2022-12-03T16:04:51.939Z,96340.09
2022-12-03T16:07:18.568Z,96331.81
2022-12-03T16:09:45.208Z,96322.91
2022-12-03T16:12:11.852Z,96332.00
2022-12-03T16:14:38.475Z,96328.25
2022-12-03T16:17:05.107Z,96327.06
2022-12-03T16:19:31.744Z,96314.34
2022-12-03T16:21:58.419Z,96317.91
2022-12-03T16:24:25.053Z,96311.47
2022-12-03T16:26:52.086Z,96324.50
2022-12-03T16:29:18.726Z,96323.69
2022-12-03T16:31:45.359Z,96319.81
2022-12-03T16:34:12.899Z,96324.75
2022-12-03T16:36:39.602Z,96322.47
2022-12-03T16:39:06.315Z,96321.19
2022-12-03T16:41:33.122Z,96320.97
2022-12-03T16:43:59.778Z,96315.81
2022-12-03T16:46:26.705Z,96312.84
2022-12-03T16:48:57.077Z,96330.25
2022-12-03T16:51:24.821Z,96323.63
2022-12-03T16:53:51.534Z,96317.84
2022-12-03T16:56:18.180Z,96319.53
2022-12-03T16:58:44.809Z,96317.22
2022-12-03T17:01:11.544Z,96321.97
2022-12-03T17:03:38.206Z,96323.78
2022-12-03T17:06:04.929Z,96317.31
2022-12-03T17:08:31.702Z,96320.97
2022-12-03T17:10:58.390Z,96325.59
2022-12-03T17:13:25.086Z,96324.97
2022-12-03T17:15:51.782Z,96316.19
2022-12-03T17:18:18.468Z,96313.41
2022-12-03T17:20:45.096Z,96316.97
2022-12-03T17:23:12.002Z,96305.66
2022-12-03T17:25:38.661Z,96317.59
2022-12-03T17:28:05.302Z,96313.44
2022-12-03T17:30:31.943Z,96315.69
2022-12-03T17:32:58.577Z,96318.72
2022-12-03T17:35:25.220Z,96308.84
2022-12-03T17:37:51.869Z,96312.44
2022-12-03T17:40:18.496Z,96320.72
2022-12-03T17:42:45.192Z,96312.06
2022-12-03T17:45:12.101Z,96304.94
2022-12-03T17:47:38.749Z,96307.97
2022-12-03T17:50:06.432Z,96302.22
2022-12-03T17:52:33.113Z,96307.50
2022-12-03T17:55:11.295Z,96308.03
2022-12-03T17:57:41.038Z,96314.09
2022-12-03T18:00:08.395Z,96320.09
2022-12-03T18:02:35.315Z,96310.31
2022-12-03T18:05:01.951Z,96314.63
2022-12-03T18:07:28.651Z,96310.16
2022-12-03T18:09:55.627Z,96313.81
2022-12-03T18:12:22.483Z,96306.38
2022-12-03T18:14:49.136Z,96307.75
2022-12-03T18:17:15.784Z,96310.31
2022-12-03T18:19:42.647Z,96308.63
2022-12-03T18:22:09.287Z,96309.41
2022-12-03T18:24:35.973Z,96309.56
2022-12-03T18:27:02.604Z,96309.19
2022-12-03T18:29:29.244Z,96316.72
2022-12-03T18:31:55.998Z,96312.13
2022-12-03T18:34:22.737Z,96317.78
2022-12-03T18:36:49.486Z,96316.56
2022-12-03T18:39:27.577Z,96305.22
2022-12-03T18:41:54.258Z,96314.88
2022-12-03T18:44:20.883Z,96317.56
2022-12-03T18:46:55.151Z,96318.41
2022-12-03T18:49:22.099Z,96310.00
2022-12-03T18:51:50.434Z,96303.88
2022-12-03T18:54:18.898Z,96312.97
2022-12-03T18:56:45.566Z,96314.41
2022-12-03T18:59:12.221Z,96308.44
2022-12-03T19:01:38.934Z,96313.25
2022-12-03T19:04:05.633Z,96323.50
2022-12-03T19:06:32.288Z,96316.22
2022-12-03T19:08:58.909Z,96314.47
2022-12-03T19:11:25.632Z,96319.53
2022-12-03T19:13:52.259Z,96310.91
2022-12-03T19:16:19.007Z,96308.28
2022-12-03T19:18:45.727Z,96303.72
2022-12-03T19:21:13.790Z,96313.72
2022-12-03T19:23:40.537Z,96311.16
2022-12-03T19:26:07.939Z,96303.66
2022-12-03T19:28:34.613Z,96303.38
2022-12-03T19:31:10.274Z,96303.22
2022-12-03T19:33:37.466Z,96315.63
2022-12-03T19:36:05.241Z,96320.44
2022-12-03T19:38:31.912Z,96318.47
2022-12-03T19:40:59.240Z,96310.31
2022-12-03T19:43:25.983Z,96311.59
2022-12-03T19:45:53.119Z,96313.28
2022-12-03T19:48:19.999Z,96302.16
2022-12-03T19:51:13.223Z,96317.97
2022-12-03T19:53:39.620Z,96303.97
2022-12-03T19:56:13.950Z,96291.63
2022-12-03T19:58:40.972Z,96300.63
2022-12-03T20:01:17.911Z,96301.47
2022-12-03T20:03:46.133Z,96311.59
2022-12-03T20:06:13.223Z,96310.75
2022-12-03T20:08:39.894Z,96297.44
2022-12-03T20:11:13.810Z,96306.38
2022-12-03T20:13:40.640Z,96299.56
2022-12-03T20:16:08.462Z,96311.22
2022-12-03T20:18:35.389Z,96304.63
2022-12-03T20:21:02.010Z,96309.19
2022-12-03T20:23:28.683Z,96316.69
2022-12-03T20:25:55.305Z,96311.41
2022-12-03T20:28:21.961Z,96304.34
2022-12-03T20:31:07.816Z,96302.31
2022-12-03T20:33:34.443Z,96301.63
2022-12-03T20:36:01.086Z,96289.81
2022-12-03T20:38:27.697Z,96296.09
2022-12-03T20:40:54.417Z,96289.75
2022-12-03T20:43:21.051Z,96300.03
2022-12-03T20:45:47.746Z,96298.34
2022-12-03T20:48:14.501Z,96307.75
2022-12-03T20:50:41.127Z,96298.50
2022-12-03T20:53:24.484Z,96307.75
2022-12-03T20:55:57.928Z,96295.66
2022-12-03T20:58:24.578Z,96305.63
2022-12-03T21:00:51.647Z,96308.28
2022-12-03T21:03:18.348Z,96307.69
2022-12-03T21:05:45.001Z,96313.56
2022-12-03T21:08:11.908Z,96318.03
2022-12-03T21:10:39.471Z,96319.34
2022-12-03T21:13:06.115Z,96312.22
2022-12-03T21:15:32.784Z,96317.13
2022-12-03T21:17:59.424Z,96323.34
2022-12-03T21:20:26.091Z,96321.00
2022-12-03T21:22:52.741Z,96331.91
2022-12-03T21:25:19.377Z,96330.25
2022-12-03T21:27:46.041Z,96341.94
2022-12-03T21:30:12.956Z,96343.00
2022-12-03T21:32:39.606Z,96342.25
2022-12-03T21:35:06.467Z,96347.38
2022-12-03T21:37:33.109Z,96346.56
2022-12-03T21:40:02.093Z,96354.75
2022-12-03T21:42:36.446Z,96365.56
2022-12-03T21:45:04.239Z,96348.84
2022-12-03T21:47:36.507Z,96361.88
2022-12-03T21:50:05.573Z,96373.13
2022-12-03T21:52:32.220Z,96373.66
2022-12-03T21:54:58.871Z,96366.69
2022-12-03T21:57:25.504Z,96362.28
2022-12-03T21:59:54.413Z,96352.38
2022-12-03T22:02:21.752Z,96355.78
2022-12-03T22:04:51.426Z,96362.06
2022-12-03T22:07:18.053Z,96358.59
2022-12-03T22:09:44.691Z,96361.63
2022-12-03T22:12:11.360Z,96354.28
2022-12-03T22:14:38.005Z,96338.69
2022-12-03T22:17:04.659Z,96348.84
2022-12-03T22:19:31.305Z,96338.78
2022-12-03T22:21:57.949Z,96334.16
2022-12-03T22:24:24.602Z,96326.91
2022-12-03T22:26:51.217Z,96326.22
2022-12-03T22:29:17.856Z,96317.38
2022-12-03T22:31:44.526Z,96321.44
2022-12-03T22:34:11.174Z,96314.88
2022-12-03T22:36:37.853Z,96313.50
2022-12-03T22:39:04.462Z,96320.28
2022-12-03T22:41:31.098Z,96315.81
2022-12-03T22:43:57.735Z,96309.84
2022-12-03T22:46:24.432Z,96306.19
2022-12-03T22:48:51.070Z,96298.75
2022-12-03T22:51:19.286Z,96304.19
2022-12-03T22:53:45.923Z,96294.75
2022-12-03T22:56:12.600Z,96298.44
2022-12-03T22:58:39.723Z,96286.03
2022-12-03T23:01:06.524Z,96285.34
2022-12-03T23:03:33.283Z,96291.56
2022-12-03T23:05:59.995Z,96285.28
2022-12-03T23:08:26.635Z,96275.97
2022-12-03T23:10:53.249Z,96284.75
2022-12-03T23:13:20.324Z,96287.09
2022-12-03T23:15:51.020Z,96296.34
2022-12-03T23:18:18.568Z,96297.59
2022-12-03T23:20:49.748Z,96297.31
2022-12-03T23:23:16.583Z,96301.94
2022-12-03T23:25:43.313Z,96302.16
2022-12-03T23:28:09.939Z,96294.84
2022-12-03T23:30:37.535Z,96292.63
2022-12-03T23:33:04.713Z,96281.94
2022-12-03T23:35:31.466Z,96294.59
2022-12-03T23:37:58.212Z,96281.88
2022-12-03T23:40:24.857Z,96278.13
2022-12-03T23:42:51.516Z,96276.13
2022-12-03T23:45:18.224Z,96279.38
2022-12-03T23:47:44.838Z,96280.22
2022-12-03T23:50:11.860Z,96269.84
2022-12-03T23:52:38.521Z,96275.47
2022-12-03T23:55:05.475Z,96277.78
2022-12-03T23:57:32.125Z,96274.25
2022-12-03T23:59:58.759Z,96272.13
